createdAt,value
2019-03-30T00:02:23.616Z,26.62
2019-03-30T00:04:55.018Z,16.70
2019-03-30T00:07:26.338Z,10.10
2019-03-30T00:09:57.578Z,9.53
2019-03-30T00:12:28.881Z,10.55
2019-03-30T00:15:00.245Z,18.92
2019-03-30T00:17:31.456Z,17.70
2019-03-30T00:20:02.748Z,21.20
2019-03-30T00:22:34.055Z,19.85
2019-03-30T00:25:05.831Z,21.00
2019-03-30T00:27:37.054Z,28.40
2019-03-30T00:30:08.448Z,27.20
2019-03-30T00:32:39.739Z,25.72
2019-03-30T00:35:11.057Z,24.67
2019-03-30T00:37:42.286Z,25.20
2019-03-30T00:40:13.588Z,24.80
2019-03-30T00:42:44.900Z,23.83
2019-03-30T00:45:16.183Z,23.20
2019-03-30T00:47:47.429Z,23.90
2019-03-30T00:50:18.639Z,24.87
2019-03-30T00:52:49.966Z,26.57
2019-03-30T00:55:21.313Z,23.98
2019-03-30T00:57:52.453Z,27.10
2019-03-30T01:00:23.806Z,27.93
2019-03-30T01:02:55.163Z,27.17
2019-03-30T01:05:26.459Z,27.15
2019-03-30T01:07:57.652Z,30.60
2019-03-30T01:10:28.988Z,32.40
2019-03-30T01:13:00.054Z,29.13
2019-03-30T01:15:31.285Z,30.90
2019-03-30T01:18:02.579Z,28.95
2019-03-30T01:20:33.910Z,23.52
2019-03-30T01:23:05.187Z,28.45
2019-03-30T01:25:36.608Z,33.20
2019-03-30T01:28:07.910Z,31.42
2019-03-30T01:30:39.267Z,26.77
2019-03-30T01:33:10.591Z,27.63
2019-03-30T01:35:41.845Z,27.87
2019-03-30T01:38:13.068Z,28.70
2019-03-30T01:40:44.289Z,29.05
2019-03-30T01:43:15.482Z,29.15
2019-03-30T01:45:46.761Z,27.62
2019-03-30T01:48:18.014Z,27.17
2019-03-30T01:50:49.298Z,19.55
2019-03-30T01:53:20.578Z,23.50
2019-03-30T01:55:51.891Z,23.90
2019-03-30T01:58:23.191Z,23.00
2019-03-30T02:00:54.353Z,20.30
2019-03-30T02:03:25.634Z,18.40
2019-03-30T02:05:56.943Z,15.03
2019-03-30T02:08:28.237Z,19.27
2019-03-30T02:10:59.655Z,25.95
2019-03-30T02:13:30.877Z,23.73
2019-03-30T02:16:02.218Z,23.47
2019-03-30T02:18:33.572Z,30.37
2019-03-30T02:21:04.871Z,32.67
2019-03-30T02:23:36.361Z,31.25
2019-03-30T02:26:07.728Z,28.42
2019-03-30T02:28:38.987Z,25.02
2019-03-30T02:31:10.380Z,22.58
2019-03-30T02:33:41.842Z,22.50
2019-03-30T02:36:13.231Z,21.23
2019-03-30T02:38:44.600Z,20.48
2019-03-30T02:41:15.932Z,19.40
2019-03-30T02:43:47.215Z,19.37
2019-03-30T02:46:18.411Z,20.55
2019-03-30T02:48:49.799Z,20.48
2019-03-30T02:51:21.111Z,20.00
2019-03-30T02:56:43.540Z,18.80
2019-03-30T02:59:14.752Z,21.45
2019-03-30T03:01:46.053Z,20.97
2019-03-30T03:04:17.369Z,20.05
2019-03-30T03:06:48.692Z,17.70
2019-03-30T06:31:16.881Z,40.27
2019-03-30T06:33:49.003Z,40.48
2019-03-30T06:36:20.415Z,39.92
2019-03-30T06:38:51.940Z,40.80
2019-03-30T06:41:23.323Z,42.60
2019-03-30T06:43:54.646Z,43.30
2019-03-30T06:46:30.025Z,48.43
2019-03-30T06:49:01.390Z,46.98
2019-03-30T06:51:32.620Z,47.30
2019-03-30T06:54:04.620Z,47.25
2019-03-30T06:56:36.126Z,45.60
2019-03-30T06:59:07.415Z,47.65
2019-03-30T07:01:38.746Z,44.93
2019-03-30T07:04:11.345Z,43.70
2019-03-30T07:06:44.724Z,44.42
2019-03-30T07:09:18.730Z,43.50
2019-03-30T07:11:53.619Z,42.27
2019-03-30T07:14:27.424Z,40.30
2019-03-30T07:17:01.925Z,38.80
2019-03-30T07:19:37.970Z,38.25
2019-03-30T07:22:09.276Z,38.08
2019-03-30T07:24:40.646Z,37.83
2019-03-30T07:27:11.932Z,35.48
2019-03-30T07:29:43.290Z,35.33
2019-03-30T07:32:14.602Z,36.80
2019-03-30T07:34:45.970Z,35.40
2019-03-30T07:37:17.272Z,34.55
2019-03-30T07:39:48.586Z,33.67
2019-03-30T07:42:19.888Z,32.75
2019-03-30T07:44:51.392Z,34.13
2019-03-30T07:47:22.744Z,34.15
2019-03-30T07:49:54.126Z,33.15
2019-03-30T07:52:25.402Z,31.23
2019-03-30T07:54:56.606Z,32.77
2019-03-30T07:57:27.852Z,32.05
2019-03-30T07:59:59.193Z,30.40
2019-03-30T08:02:30.421Z,30.25
2019-03-30T08:05:01.691Z,30.23
2019-03-30T08:07:32.972Z,28.87
2019-03-30T08:10:04.601Z,28.32
2019-03-30T08:12:36.587Z,29.80
2019-03-30T08:15:09.423Z,27.27
2019-03-30T08:17:43.108Z,27.55
2019-03-30T08:20:15.513Z,26.27
2019-03-30T08:22:46.812Z,26.70
2019-03-30T08:25:18.232Z,25.00
2019-03-30T08:27:49.569Z,26.67
2019-03-30T08:30:20.863Z,24.82
2019-03-30T08:32:52.245Z,24.87
2019-03-30T08:35:23.466Z,23.80
2019-03-30T08:37:54.747Z,23.38
2019-03-30T08:40:26.087Z,23.70
2019-03-30T08:42:57.428Z,23.18
2019-03-30T08:45:28.748Z,22.13
2019-03-30T08:48:00.010Z,22.27
2019-03-30T08:50:31.404Z,22.02
2019-03-30T08:53:02.727Z,23.47
2019-03-30T08:55:34.084Z,23.00
2019-03-30T08:58:05.390Z,22.70
2019-03-30T09:00:42.303Z,21.30
2019-03-30T09:03:13.788Z,20.82
2019-03-30T09:05:45.082Z,22.07
2019-03-30T09:08:16.446Z,21.45
2019-03-30T09:10:47.767Z,21.70
2019-03-30T09:13:19.083Z,22.00
2019-03-30T09:15:50.443Z,20.95
2019-03-30T09:18:21.793Z,21.00
2019-03-30T09:20:53.110Z,21.07
2019-03-30T09:23:24.610Z,21.17
2019-03-30T09:25:55.937Z,21.77
2019-03-30T09:28:27.272Z,22.15
2019-03-30T09:30:58.625Z,20.37
2019-03-30T09:33:29.911Z,19.32
2019-03-30T09:36:01.255Z,18.82
2019-03-30T09:38:32.573Z,18.47
2019-03-30T09:41:04.224Z,18.75
2019-03-30T09:43:37.504Z,18.57
2019-03-30T09:46:08.559Z,19.92
2019-03-30T09:48:39.857Z,19.10
2019-03-30T09:51:11.187Z,18.20
2019-03-30T09:53:42.549Z,19.77
2019-03-30T09:56:13.931Z,19.48
2019-03-30T09:58:45.193Z,18.67
2019-03-30T10:01:16.610Z,19.65
2019-03-30T10:03:47.932Z,20.43
2019-03-30T10:06:19.242Z,20.00
2019-03-30T10:08:50.483Z,19.77
2019-03-30T10:11:21.693Z,21.02
2019-03-30T10:13:52.933Z,21.77
2019-03-30T10:16:24.303Z,20.90
2019-03-30T10:18:55.538Z,20.60
2019-03-30T10:21:26.848Z,21.07
2019-03-30T10:23:58.107Z,21.20
2019-03-30T10:26:29.409Z,21.23
2019-03-30T10:29:00.669Z,22.23
2019-03-30T10:31:32.032Z,21.83
2019-03-30T10:34:03.340Z,22.00
2019-03-30T10:36:34.558Z,21.90
2019-03-30T10:39:07.747Z,22.70
2019-03-30T10:41:39.058Z,20.82
2019-03-30T10:44:10.397Z,21.95
2019-03-30T10:46:41.793Z,21.75
2019-03-30T10:49:13.098Z,22.05
2019-03-30T10:51:44.295Z,21.75
2019-03-30T10:54:15.604Z,22.02
2019-03-30T10:56:46.847Z,20.72
2019-03-30T10:59:18.063Z,22.35
2019-03-30T11:01:49.393Z,22.65
2019-03-30T11:04:20.586Z,22.52
2019-03-30T11:06:51.872Z,21.30
2019-03-30T11:09:23.196Z,21.80
2019-03-30T11:11:54.515Z,22.13
2019-03-30T11:14:25.917Z,22.20
2019-03-30T11:16:57.163Z,21.87
2019-03-30T11:19:28.385Z,23.07
2019-03-30T11:22:02.905Z,22.37
2019-03-30T11:24:32.660Z,22.00
2019-03-30T11:27:04.036Z,21.93
2019-03-30T11:29:35.245Z,22.60
2019-03-30T11:32:06.603Z,23.37
2019-03-30T11:34:37.750Z,22.40
2019-03-30T11:37:09.077Z,24.77
2019-03-30T11:39:40.335Z,24.30
2019-03-30T11:42:11.635Z,23.55
2019-03-30T11:44:42.898Z,23.60
2019-03-30T11:47:14.244Z,22.80
2019-03-30T11:49:45.481Z,23.98
2019-03-30T11:52:16.728Z,23.30
2019-03-30T11:54:48.046Z,24.25
2019-03-30T11:57:19.347Z,24.77
2019-03-30T11:59:50.674Z,22.95
2019-03-30T12:02:28.171Z,23.60
2019-03-30T12:04:55.167Z,22.82
2019-03-30T12:07:26.509Z,23.70
2019-03-30T12:09:57.829Z,22.90
2019-03-30T12:12:28.960Z,23.77
2019-03-30T12:15:00.488Z,22.93
2019-03-30T12:17:31.784Z,22.50
2019-03-30T12:20:03.079Z,22.80
2019-03-30T12:22:34.395Z,22.70
2019-03-30T12:25:06.425Z,21.10
2019-03-30T12:27:37.659Z,20.13
2019-03-30T12:30:09.306Z,21.10
2019-03-30T12:32:40.700Z,20.65
2019-03-30T12:35:12.329Z,21.02
2019-03-30T12:37:43.506Z,20.60
2019-03-30T12:40:16.291Z,20.48
2019-03-30T12:42:47.949Z,19.85
2019-03-30T12:45:19.329Z,19.92
2019-03-30T12:47:50.619Z,20.43
2019-03-30T12:50:21.929Z,20.32
2019-03-30T12:52:53.278Z,20.57
2019-03-30T12:55:24.596Z,20.55
2019-03-30T12:57:55.918Z,17.65
2019-03-30T13:00:27.216Z,16.27
2019-03-30T13:02:58.547Z,17.40
2019-03-30T13:05:29.823Z,16.05
2019-03-30T13:08:01.110Z,15.75
2019-03-30T13:10:32.440Z,14.68
2019-03-30T13:13:03.656Z,14.25
2019-03-30T13:15:34.886Z,16.00
2019-03-30T13:18:06.217Z,14.65
2019-03-30T13:20:37.517Z,15.05
2019-03-30T13:23:08.768Z,13.55
2019-03-30T13:25:40.087Z,13.15
2019-03-30T13:28:11.413Z,15.30
2019-03-30T13:30:42.734Z,15.78
2019-03-30T13:33:14.073Z,14.80
2019-03-30T13:35:45.263Z,13.60
2019-03-30T13:38:16.399Z,14.80
2019-03-30T13:40:47.775Z,13.30
2019-03-30T13:43:19.090Z,15.68
2019-03-30T13:45:50.356Z,15.40
2019-03-30T13:48:21.688Z,15.32
2019-03-30T13:50:52.978Z,14.13
2019-03-30T13:53:24.211Z,13.65
2019-03-30T13:55:55.493Z,15.38
2019-03-30T13:58:26.747Z,14.83
2019-03-30T14:00:58.050Z,14.10
2019-03-30T14:03:29.253Z,13.93
2019-03-30T14:06:00.560Z,14.68
2019-03-30T14:08:31.759Z,13.80
2019-03-30T14:11:03.132Z,15.18
2019-03-30T14:13:34.434Z,15.35
2019-03-30T14:16:05.739Z,14.28
2019-03-30T14:18:37.192Z,14.65
2019-03-30T14:21:08.497Z,14.03
2019-03-30T14:23:43.212Z,12.93
2019-03-30T14:26:12.923Z,12.07
2019-03-30T14:28:44.041Z,13.78
2019-03-30T14:31:15.300Z,13.30
2019-03-30T14:33:46.581Z,13.05
2019-03-30T14:36:17.852Z,12.45
2019-03-30T14:38:49.152Z,12.82
2019-03-30T14:41:20.921Z,13.83
2019-03-30T14:43:52.301Z,13.03
2019-03-30T14:46:23.483Z,13.22
2019-03-30T14:48:54.820Z,12.78
2019-03-30T14:51:26.031Z,13.90
2019-03-30T14:53:57.349Z,13.23
2019-03-30T14:56:28.695Z,12.35
2019-03-30T14:59:10.090Z,12.85
2019-03-30T15:01:33.056Z,13.38
2019-03-30T15:04:04.620Z,13.70
2019-03-30T15:06:35.927Z,12.98
2019-03-30T15:09:08.776Z,13.90
2019-03-30T15:11:40.061Z,13.62
2019-03-30T15:14:11.348Z,12.40
2019-03-30T15:16:42.800Z,13.50
2019-03-30T15:19:14.163Z,13.00
2019-03-30T15:21:45.445Z,13.27
2019-03-30T15:24:17.000Z,13.50
2019-03-30T15:26:59.374Z,12.00
2019-03-30T15:29:21.578Z,13.03
2019-03-30T15:31:52.898Z,13.13
2019-03-30T15:34:24.417Z,12.53
2019-03-30T15:36:55.887Z,12.23
2019-03-30T15:39:27.689Z,11.70
2019-03-30T15:41:59.104Z,12.47
2019-03-30T15:44:30.451Z,12.78
2019-03-30T15:47:01.817Z,12.30
2019-03-30T15:49:33.120Z,10.93
2019-03-30T15:52:13.723Z,12.45
2019-03-30T15:54:37.655Z,12.55
2019-03-30T15:57:14.321Z,11.20
2019-03-30T15:59:42.226Z,11.28
2019-03-30T16:02:13.583Z,12.37
2019-03-30T16:04:45.026Z,11.88
2019-03-30T16:07:16.597Z,12.03
2019-03-30T16:09:48.029Z,11.47
2019-03-30T16:12:19.605Z,11.60
2019-03-30T16:14:51.040Z,12.30
2019-03-30T16:17:22.438Z,10.95
2019-03-30T16:19:53.913Z,10.68
2019-03-30T16:22:25.340Z,11.18
2019-03-30T16:24:56.862Z,12.23
2019-03-30T16:27:29.490Z,11.10
2019-03-30T16:30:01.142Z,11.10
2019-03-30T16:32:32.633Z,11.57
2019-03-30T16:35:04.098Z,11.25
2019-03-30T16:37:35.459Z,12.45
2019-03-30T16:40:07.498Z,11.97
2019-03-30T16:42:38.847Z,11.50
2019-03-30T16:45:10.932Z,11.88
2019-03-30T16:47:42.380Z,10.88
2019-03-30T16:50:15.374Z,11.65
2019-03-30T16:52:46.735Z,10.73
2019-03-30T16:55:18.128Z,11.63
2019-03-30T16:57:49.405Z,11.20
2019-03-30T17:00:20.865Z,11.85
2019-03-30T17:02:52.243Z,12.50
2019-03-30T17:05:23.621Z,13.35
2019-03-30T17:07:55.049Z,13.35
2019-03-30T17:10:26.412Z,12.40
2019-03-30T17:12:57.829Z,12.30
2019-03-30T17:15:29.270Z,13.45
2019-03-30T17:18:00.612Z,15.97
2019-03-30T17:20:31.972Z,17.00
2019-03-30T17:23:03.274Z,18.60
2019-03-30T17:25:34.693Z,24.15
2019-03-30T17:28:07.076Z,31.20
2019-03-30T17:30:38.956Z,33.98
2019-03-30T17:33:10.312Z,35.17
2019-03-30T17:35:41.774Z,34.30
2019-03-30T17:38:13.301Z,33.08
2019-03-30T17:40:44.653Z,36.65
2019-03-30T17:43:16.103Z,36.20
2019-03-30T17:45:47.578Z,36.20
2019-03-30T17:48:19.151Z,37.03
2019-03-30T17:50:50.637Z,35.90
2019-03-30T17:53:22.250Z,35.63
2019-03-30T17:55:53.636Z,34.70
2019-03-30T17:58:25.168Z,37.00
2019-03-30T18:00:56.646Z,36.70
2019-03-30T18:03:28.073Z,37.38
2019-03-30T18:05:59.438Z,36.63
2019-03-30T18:08:30.926Z,39.00
2019-03-30T18:11:04.112Z,37.63
2019-03-30T18:13:36.976Z,38.83
2019-03-30T18:16:08.463Z,40.78
2019-03-30T18:18:39.887Z,43.38
2019-03-30T18:21:12.198Z,42.75
2019-03-30T18:23:43.545Z,44.65
2019-03-30T18:26:15.251Z,43.95
2019-03-30T18:28:46.567Z,41.60
2019-03-30T18:31:18.354Z,40.77
2019-03-30T18:33:50.354Z,40.05
2019-03-30T18:36:22.115Z,37.65
2019-03-30T18:39:08.784Z,35.97
2019-03-30T18:41:29.125Z,37.50
2019-03-30T18:44:02.173Z,37.70
2019-03-30T18:46:33.742Z,38.35
2019-03-30T18:49:05.238Z,39.25
2019-03-30T18:51:37.466Z,39.10
2019-03-30T18:54:08.983Z,38.13
2019-03-30T18:56:40.559Z,41.08
2019-03-30T18:59:12.121Z,41.18
2019-03-30T19:01:43.558Z,43.80
2019-03-30T19:04:15.020Z,44.30
2019-03-30T19:06:46.488Z,47.80
2019-03-30T19:09:17.951Z,46.37
2019-03-30T19:11:49.832Z,47.73
2019-03-30T19:14:21.413Z,48.52
2019-03-30T19:16:52.887Z,48.48
2019-03-30T19:19:24.338Z,45.92
2019-03-30T19:21:55.757Z,46.70
2019-03-30T19:24:27.215Z,50.60
2019-03-30T19:26:58.732Z,47.43
2019-03-30T19:29:30.175Z,47.33
2019-03-30T19:32:01.580Z,49.85
2019-03-30T19:34:32.976Z,48.55
2019-03-30T19:37:04.356Z,51.13
2019-03-30T19:39:35.778Z,49.05
2019-03-30T19:42:07.664Z,47.55
2019-03-30T19:44:39.051Z,47.80
2019-03-30T19:47:10.473Z,46.90
2019-03-30T19:49:41.906Z,47.62
2019-03-30T19:52:13.301Z,48.15
2019-03-30T19:54:44.851Z,47.70
2019-03-30T19:57:16.296Z,48.40
2019-03-30T19:59:47.731Z,46.50
2019-03-30T20:02:19.195Z,46.70
2019-03-30T20:04:50.621Z,48.20
2019-03-30T20:07:22.130Z,47.62
2019-03-30T20:09:53.531Z,46.60
2019-03-30T20:12:25.229Z,44.93
2019-03-30T20:14:56.803Z,45.85
2019-03-30T20:17:28.314Z,47.17
2019-03-30T20:19:59.726Z,45.80
2019-03-30T20:22:31.152Z,44.88
2019-03-30T20:25:02.490Z,45.53
2019-03-30T20:27:33.811Z,47.67
2019-03-30T20:30:06.227Z,47.85
2019-03-30T20:32:37.762Z,48.08
2019-03-30T20:35:11.251Z,48.33
2019-03-30T20:37:43.015Z,47.03
2019-03-30T20:40:14.591Z,48.90
2019-03-30T20:42:46.010Z,50.55
2019-03-30T20:45:18.781Z,50.90
2019-03-30T20:47:50.230Z,52.78
2019-03-30T20:50:21.642Z,51.95
2019-03-30T20:52:53.002Z,51.25
2019-03-30T20:55:24.343Z,51.43
2019-03-30T20:57:55.757Z,53.02
2019-03-30T21:00:27.114Z,52.75
2019-03-30T21:02:58.633Z,51.53
2019-03-30T21:05:30.039Z,55.15
2019-03-30T21:08:01.544Z,51.70
2019-03-30T21:10:32.958Z,50.95
2019-03-30T21:13:04.523Z,52.33
2019-03-30T21:15:36.075Z,51.50
2019-03-30T21:18:07.379Z,52.50
2019-03-30T21:20:38.620Z,49.77
2019-03-30T21:23:10.010Z,52.05
2019-03-30T21:25:41.341Z,51.33
2019-03-30T21:28:12.685Z,52.53
2019-03-30T21:30:44.030Z,52.70
2019-03-30T21:33:15.276Z,53.83
2019-03-30T21:35:46.595Z,52.05
2019-03-30T21:38:17.966Z,51.58
2019-03-30T21:40:49.228Z,52.08
2019-03-30T21:43:20.571Z,51.80
2019-03-30T21:45:51.884Z,51.42
2019-03-30T21:48:23.114Z,50.65
2019-03-30T21:50:54.342Z,50.12
2019-03-30T21:53:25.636Z,49.30
2019-03-30T21:55:57.007Z,51.30
2019-03-30T21:58:29.192Z,50.73
2019-03-30T22:01:00.556Z,51.20
2019-03-30T22:03:31.811Z,49.33
2019-03-30T22:06:03.173Z,48.15
2019-03-30T22:08:34.582Z,48.08
2019-03-30T22:11:06.264Z,48.87
2019-03-30T22:13:38.667Z,50.12
2019-03-30T22:16:10.031Z,48.80
2019-03-30T22:18:41.381Z,49.25
2019-03-30T22:21:12.626Z,49.25
2019-03-30T22:23:44.174Z,50.48
2019-03-30T22:26:15.599Z,48.33
2019-03-30T22:28:47.059Z,49.95
2019-03-30T22:31:18.767Z,49.77
2019-03-30T22:33:50.217Z,52.62
2019-03-30T22:36:21.753Z,50.73
2019-03-30T22:38:53.257Z,52.70
2019-03-30T22:41:24.783Z,50.78
2019-03-30T22:43:56.243Z,53.35
2019-03-30T22:46:27.791Z,51.63
2019-03-30T22:48:59.235Z,51.42
2019-03-30T22:51:30.643Z,52.33
2019-03-30T22:54:02.126Z,49.67
2019-03-30T22:56:33.535Z,52.00
2019-03-30T22:59:05.041Z,48.30
2019-03-30T23:01:36.801Z,49.00
2019-03-30T23:04:08.406Z,48.75
2019-03-30T23:06:39.852Z,43.58
2019-03-30T23:09:11.701Z,43.30
2019-03-30T23:11:43.488Z,42.30
2019-03-30T23:14:14.956Z,42.00
2019-03-30T23:16:46.466Z,41.70
2019-03-30T23:19:17.965Z,42.13
2019-03-30T23:21:49.436Z,47.40
2019-03-30T23:24:20.928Z,45.05
2019-03-30T23:26:52.472Z,43.68
2019-03-30T23:29:23.935Z,43.33
2019-03-30T23:31:55.472Z,41.65
2019-03-30T23:34:27.000Z,39.50
2019-03-30T23:36:58.539Z,38.50
2019-03-30T23:39:29.997Z,34.18
2019-03-30T23:42:01.560Z,35.30
2019-03-30T23:44:33.085Z,34.00
2019-03-30T23:47:04.635Z,36.50
2019-03-30T23:49:37.113Z,33.00
2019-03-30T23:52:08.674Z,31.80
2019-03-30T23:54:40.178Z,29.98
2019-03-30T23:57:11.665Z,31.80
2019-03-30T23:59:43.150Z,31.37
